ΕΜΥ, Εθνική Μετεωρολογική Υπηρεσία - Δελτία Καιρού, Προγνώσεις

ΑΕΡΟΝΑΥΤΙΛΙΑ

GREEK AIRPORTS CODES

LGAV 270050Z 03021KT 9999 FEW020 SCT030 13/05 Q1021 RMK BKN100 NOSIG=

EUROPEAN AIRPORTS CODES

LFPO 270130Z AUTO 18009KT 9999 OVC007 06/04 Q1024 NOSIG=